createdAt,value
2019-04-01T00:01:45.780Z,7.20
2019-04-01T00:04:12.631Z,6.28
2019-04-01T00:06:38.978Z,4.25
2019-04-01T00:09:05.547Z,5.37
2019-04-01T00:11:31.908Z,9.40
2019-04-01T00:13:58.377Z,11.78
2019-04-01T00:16:24.928Z,3.37
2019-04-01T00:19:02.407Z,5.40
2019-04-01T00:21:19.998Z,4.95
2019-04-01T00:23:46.575Z,5.80
2019-04-01T00:26:12.939Z,4.20
2019-04-01T00:28:39.730Z,7.62
2019-04-01T00:31:06.470Z,15.95
2019-04-01T00:33:33.312Z,5.95
2019-04-01T00:36:00.069Z,5.28
2019-04-01T00:38:26.520Z,7.58
2019-04-01T00:40:52.987Z,2.40
2019-04-01T00:43:21.338Z,3.83
2019-04-01T00:45:49.702Z,4.50
2019-04-01T00:48:16.528Z,9.65
2019-04-01T00:50:43.003Z,13.00
2019-04-01T00:53:09.448Z,4.05
2019-04-01T00:55:36.142Z,6.80
2019-04-01T00:58:02.671Z,4.25
2019-04-01T01:00:29.613Z,6.05
2019-04-01T01:02:56.246Z,5.22
2019-04-01T01:05:23.006Z,6.58
2019-04-01T01:07:49.499Z,6.30
2019-04-01T01:10:16.122Z,8.10
2019-04-01T01:12:42.499Z,6.42
2019-04-01T01:15:09.544Z,3.50
2019-04-01T01:17:36.007Z,8.30
2019-04-01T01:20:04.663Z,11.70
2019-04-01T01:22:31.143Z,9.45
2019-04-01T01:24:57.576Z,10.28
2019-04-01T01:27:24.043Z,3.25
2019-04-01T01:29:50.504Z,3.47
2019-04-01T01:32:16.947Z,3.22
2019-04-01T01:34:43.427Z,7.87
2019-04-01T01:37:09.980Z,4.17
2019-04-01T01:39:36.552Z,6.90
2019-04-01T01:42:03.096Z,2.92
2019-04-01T01:44:29.923Z,5.85
2019-04-01T01:46:56.371Z,3.12
2019-04-01T01:49:22.856Z,5.62
2019-04-01T01:51:49.336Z,5.08
2019-04-01T01:54:15.781Z,4.33
2019-04-01T01:56:42.222Z,6.75
2019-04-01T01:59:08.591Z,3.25
2019-04-01T02:01:35.368Z,2.85
2019-04-01T02:04:01.843Z,3.10
2019-04-01T02:06:29.217Z,5.75
2019-04-01T02:08:55.895Z,6.83
2019-04-01T02:11:22.434Z,4.58
2019-04-01T02:13:49.171Z,5.75
2019-04-01T02:16:15.661Z,6.80
2019-04-01T02:18:42.124Z,7.12
2019-04-01T02:21:08.587Z,4.90
2019-04-01T02:23:35.315Z,6.97
2019-04-01T02:26:01.804Z,5.45
2019-04-01T02:28:28.238Z,6.05
2019-04-01T02:30:54.621Z,6.37
2019-04-01T02:33:21.051Z,5.28
2019-04-01T02:35:47.789Z,7.83
2019-04-01T02:38:14.333Z,7.92
2019-04-01T02:40:40.897Z,6.00
2019-04-01T02:43:07.352Z,6.92
2019-04-01T02:45:33.815Z,11.97
2019-04-01T02:48:00.406Z,5.55
2019-04-01T02:50:26.984Z,8.70
2019-04-01T02:52:53.749Z,4.50
2019-04-01T02:55:20.201Z,5.25
2019-04-01T02:57:46.669Z,6.25
2019-04-01T03:00:13.716Z,7.40
2019-04-01T03:02:40.381Z,4.28
2019-04-01T03:05:07.031Z,6.28
2019-04-01T03:07:33.629Z,5.00
2019-04-01T03:10:00.174Z,4.03
2019-04-01T03:12:27.141Z,3.85
2019-04-01T03:14:53.679Z,5.97
2019-04-01T03:17:20.251Z,7.03
2019-04-01T03:19:46.711Z,7.83
2019-04-01T03:22:13.365Z,7.53
2019-04-01T03:24:39.944Z,8.83
2019-04-01T03:27:06.482Z,6.37
2019-04-01T03:29:33.426Z,5.83
2019-04-01T03:32:00.107Z,2.72
2019-04-01T03:34:26.557Z,9.85
2019-04-01T03:37:13.065Z,6.70
2019-04-01T03:39:39.553Z,4.30
2019-04-01T03:42:05.984Z,6.90
2019-04-01T03:44:32.449Z,8.68
2019-04-01T03:46:58.888Z,4.97
2019-04-01T03:49:25.498Z,8.83
2019-04-01T03:51:52.145Z,9.43
2019-04-01T03:54:18.824Z,3.87
2019-04-01T03:56:45.271Z,11.40
2019-04-01T03:59:11.753Z,5.08
2019-04-01T04:01:38.314Z,4.55
2019-04-01T04:04:04.880Z,6.65
2019-04-01T04:06:31.433Z,6.37
2019-04-01T04:09:01.637Z,8.03
2019-04-01T04:11:26.147Z,5.30
2019-04-01T04:13:52.592Z,5.22
2019-04-01T04:16:19.419Z,8.20
2019-04-01T04:18:45.963Z,3.40
2019-04-01T04:21:12.335Z,6.42
2019-04-01T04:23:38.883Z,7.00
2019-04-01T04:26:05.756Z,5.28
2019-04-01T04:28:32.199Z,9.93
2019-04-01T04:30:58.689Z,3.55
2019-04-01T04:33:25.621Z,7.40
2019-04-01T04:35:52.304Z,5.00
2019-04-01T04:38:18.942Z,9.08
2019-04-01T04:40:45.420Z,8.93
2019-04-01T04:43:12.235Z,8.80
2019-04-01T04:45:38.618Z,3.27
2019-04-01T04:48:05.180Z,10.30
2019-04-01T04:50:32.048Z,9.68
2019-04-01T04:52:58.514Z,11.45
2019-04-01T04:55:24.977Z,6.78
2019-04-01T04:57:51.535Z,10.32
2019-04-01T05:00:18.088Z,7.70
2019-04-01T05:02:44.764Z,7.17
2019-04-01T05:05:11.317Z,5.03
2019-04-01T05:07:37.800Z,4.03
2019-04-01T05:10:06.641Z,3.58
2019-04-01T05:12:33.525Z,4.80
2019-04-01T05:15:00.377Z,10.13
2019-04-01T05:17:27.150Z,4.70
2019-04-01T05:19:53.509Z,4.80
2019-04-01T05:22:20.685Z,6.78
2019-04-01T05:24:48.047Z,6.50
2019-04-01T05:27:18.324Z,7.58
2019-04-01T05:29:47.167Z,5.62
2019-04-01T05:32:15.012Z,4.50
2019-04-01T05:34:44.013Z,13.98
2019-04-01T05:37:10.568Z,8.25
2019-04-01T05:39:37.611Z,11.85
2019-04-01T05:42:04.065Z,6.40
2019-04-01T05:44:30.636Z,6.55
2019-04-01T05:46:57.302Z,5.72
2019-04-01T05:49:23.879Z,9.20
2019-04-01T05:51:50.647Z,7.58
2019-04-01T05:54:17.648Z,9.30
2019-04-01T05:56:44.304Z,14.10
2019-04-01T05:59:11.064Z,7.83
2019-04-01T06:01:42.141Z,9.75
2019-04-01T06:04:08.713Z,7.92
2019-04-01T06:06:36.048Z,8.90
2019-04-01T06:09:05.524Z,26.27
2019-04-01T06:11:32.284Z,6.28
2019-04-01T06:13:59.357Z,7.30
2019-04-01T06:16:26.213Z,10.15
2019-04-01T06:18:52.751Z,9.05
2019-04-01T06:21:19.819Z,8.60
2019-04-01T06:23:46.351Z,9.30
2019-04-01T06:26:12.833Z,15.55
2019-04-01T06:28:39.384Z,7.30
2019-04-01T06:31:05.959Z,8.38
2019-04-01T06:33:32.400Z,7.42
2019-04-01T06:35:59.308Z,14.20
2019-04-01T06:38:26.150Z,12.13
2019-04-01T06:40:52.715Z,9.00
2019-04-01T06:43:19.261Z,9.23
2019-04-01T06:45:45.852Z,12.23
2019-04-01T06:48:12.530Z,9.45
2019-04-01T06:50:39.252Z,9.73
2019-04-01T06:53:08.004Z,11.93
2019-04-01T06:55:34.508Z,13.43
2019-04-01T06:58:01.380Z,12.23
2019-04-01T07:00:29.741Z,6.80
2019-04-01T07:02:56.975Z,6.62
2019-04-01T07:05:23.523Z,10.53
2019-04-01T07:07:50.148Z,8.95
2019-04-01T07:10:16.813Z,7.20
2019-04-01T07:12:43.476Z,5.53
2019-04-01T07:15:10.567Z,5.25
2019-04-01T07:17:37.323Z,8.20
2019-04-01T07:20:04.600Z,12.18
2019-04-01T07:22:31.261Z,7.08
2019-04-01T07:24:57.957Z,12.33
2019-04-01T07:27:24.676Z,6.53
2019-04-01T07:29:51.456Z,4.70
2019-04-01T07:32:17.914Z,7.28
2019-04-01T07:34:44.723Z,5.97
2019-04-01T07:37:11.917Z,6.05
2019-04-01T07:39:38.673Z,8.55
2019-04-01T07:42:05.232Z,7.65
2019-04-01T07:44:31.891Z,6.72
2019-04-01T07:46:58.353Z,7.72
2019-04-01T07:49:25.382Z,10.70
2019-04-01T07:51:52.161Z,11.93
2019-04-01T07:54:19.110Z,6.75
2019-04-01T07:56:45.761Z,11.78
2019-04-01T07:59:13.106Z,9.10
2019-04-01T08:01:39.674Z,5.25
2019-04-01T08:04:06.484Z,8.95
2019-04-01T08:06:33.184Z,8.63
2019-04-01T08:09:00.261Z,7.25
2019-04-01T08:11:26.823Z,9.00
2019-04-01T08:13:53.478Z,7.20
2019-04-01T08:16:20.165Z,8.10
2019-04-01T08:18:47.125Z,7.53
2019-04-01T08:21:13.909Z,10.67
2019-04-01T08:23:43.605Z,9.78
2019-04-01T08:26:10.348Z,11.40
2019-04-01T08:28:37.036Z,9.13
2019-04-01T08:31:03.714Z,7.60
2019-04-01T08:33:30.280Z,18.73
2019-04-01T08:35:56.832Z,7.57
2019-04-01T08:38:25.504Z,10.37
2019-04-01T08:40:52.056Z,6.80
2019-04-01T08:43:19.039Z,10.03
2019-04-01T08:45:45.794Z,9.97
2019-04-01T08:48:12.493Z,7.93
2019-04-01T08:50:39.061Z,8.90
2019-04-01T08:53:05.837Z,8.37
2019-04-01T08:55:32.379Z,7.83
2019-04-01T08:57:59.362Z,7.67
2019-04-01T09:00:26.141Z,10.90
2019-04-01T09:02:55.664Z,7.93
2019-04-01T09:05:22.247Z,9.50
2019-04-01T09:07:49.085Z,8.93
2019-04-01T09:10:15.757Z,10.13
2019-04-01T09:12:42.612Z,12.70
2019-04-01T09:15:09.899Z,10.57
2019-04-01T09:17:39.932Z,8.53
2019-04-01T09:20:05.146Z,11.10
2019-04-01T09:22:31.704Z,8.43
2019-04-01T09:24:58.190Z,13.20
2019-04-01T09:27:24.640Z,9.10
2019-04-01T09:29:51.212Z,10.40
2019-04-01T09:32:17.833Z,10.03
2019-04-01T09:34:44.460Z,9.87
2019-04-01T09:37:11.046Z,15.20
2019-04-01T09:39:37.547Z,10.70
2019-04-01T09:42:04.099Z,12.40
2019-04-01T09:44:36.900Z,11.37
2019-04-01T09:46:59.072Z,11.50
2019-04-01T09:49:25.507Z,11.63
2019-04-01T09:51:52.100Z,10.67
2019-04-01T09:54:19.055Z,8.73
2019-04-01T09:56:45.526Z,9.87
2019-04-01T09:59:12.112Z,13.33
2019-04-01T10:01:38.781Z,14.80
2019-04-01T10:04:05.440Z,11.67
2019-04-01T10:06:31.925Z,9.83
2019-04-01T10:08:58.356Z,11.57
2019-04-01T10:11:25.295Z,12.97
2019-04-01T10:13:51.761Z,12.17
2019-04-01T10:16:18.208Z,14.27
2019-04-01T10:18:44.675Z,13.30
2019-04-01T10:21:11.241Z,11.10
2019-04-01T10:23:37.715Z,11.77
2019-04-01T10:26:04.677Z,13.87
2019-04-01T10:28:32.293Z,11.33
2019-04-01T10:30:59.266Z,13.10
2019-04-01T10:33:26.166Z,11.90
2019-04-01T10:35:52.714Z,12.17
2019-04-01T10:38:19.304Z,11.30
2019-04-01T10:40:46.182Z,17.90
2019-04-01T10:43:12.852Z,14.47
2019-04-01T10:45:39.766Z,11.37
2019-04-01T10:48:06.381Z,11.77
2019-04-01T10:50:33.528Z,10.93
2019-04-01T10:52:59.918Z,13.40
2019-04-01T10:55:26.844Z,14.63
2019-04-01T10:57:54.125Z,11.83
2019-04-01T11:00:21.398Z,14.13
2019-04-01T11:02:50.098Z,14.07
2019-04-01T11:05:16.233Z,13.33
2019-04-01T11:07:42.791Z,19.73
2019-04-01T11:10:11.659Z,11.90
2019-04-01T11:12:38.621Z,11.93
2019-04-01T11:15:05.932Z,14.40
2019-04-01T11:17:32.562Z,15.80
2019-04-01T11:19:59.137Z,14.73
2019-04-01T11:22:25.688Z,14.97
2019-04-01T11:24:52.859Z,10.63
2019-04-01T11:27:19.221Z,10.23
2019-04-01T11:29:45.816Z,14.87
2019-04-01T11:32:13.590Z,12.00
2019-04-01T11:34:40.456Z,12.03
2019-04-01T11:37:06.910Z,15.43
2019-04-01T11:39:33.706Z,10.93
2019-04-01T11:42:01.531Z,10.90
2019-04-01T11:44:28.580Z,10.77
2019-04-01T11:46:55.003Z,11.80
2019-04-01T11:49:21.697Z,10.60
2019-04-01T11:51:48.263Z,13.30
2019-04-01T11:54:15.192Z,9.63
2019-04-01T11:56:41.870Z,15.83
2019-04-01T11:59:08.721Z,11.93
2019-04-01T12:01:36.853Z,10.83
2019-04-01T12:04:03.452Z,15.77
2019-04-01T12:06:30.029Z,11.10
2019-04-01T12:08:56.635Z,14.70
2019-04-01T12:11:23.081Z,13.93
2019-04-01T12:13:49.554Z,13.00
2019-04-01T12:16:16.540Z,15.03
2019-04-01T12:18:44.589Z,10.93
2019-04-01T12:21:11.341Z,13.00
2019-04-01T12:23:37.916Z,13.77
2019-04-01T12:26:14.996Z,12.47
2019-04-01T12:28:36.348Z,19.80
2019-04-01T12:31:01.596Z,14.80
2019-04-01T12:33:28.063Z,11.87
2019-04-01T12:35:54.521Z,11.30
2019-04-01T12:38:21.080Z,13.03
2019-04-01T12:40:47.617Z,10.97
2019-04-01T12:43:15.179Z,17.63
2019-04-01T12:45:41.860Z,13.63
2019-04-01T12:48:08.404Z,11.00
2019-04-01T12:50:34.996Z,9.03
2019-04-01T12:53:01.544Z,9.33
2019-04-01T12:55:28.216Z,10.63
2019-04-01T12:57:54.668Z,10.77
2019-04-01T13:00:22.371Z,11.30
2019-04-01T13:02:49.616Z,12.17
2019-04-01T13:05:16.284Z,10.67
2019-04-01T13:07:43.042Z,10.90
2019-04-01T13:10:10.364Z,10.53
2019-04-01T13:12:36.810Z,14.10
2019-04-01T13:15:03.888Z,10.43
2019-04-01T13:17:30.430Z,11.03
2019-04-01T13:19:57.336Z,13.20
2019-04-01T13:22:23.913Z,9.90
2019-04-01T13:24:50.560Z,11.07
2019-04-01T13:27:17.153Z,12.37
2019-04-01T13:29:43.889Z,10.43
2019-04-01T13:32:10.360Z,13.97
2019-04-01T13:34:36.798Z,10.87
2019-04-01T13:37:03.279Z,16.60
2019-04-01T13:39:30.028Z,9.90
2019-04-01T13:41:56.518Z,11.57
2019-04-01T13:44:36.288Z,12.13
2019-04-01T13:46:51.438Z,8.60
2019-04-01T13:49:17.894Z,11.77
2019-04-01T13:51:44.572Z,11.10
2019-04-01T13:54:11.896Z,15.67
2019-04-01T13:56:38.442Z,12.53
2019-04-01T13:59:04.905Z,10.20
2019-04-01T14:01:31.315Z,12.50
2019-04-01T14:03:58.453Z,12.27
2019-04-01T14:06:25.224Z,12.03
2019-04-01T14:08:51.810Z,13.10
2019-04-01T14:11:18.252Z,10.80
2019-04-01T14:13:44.829Z,11.13
2019-04-01T14:16:11.277Z,11.57
2019-04-01T14:18:38.082Z,13.67
2019-04-01T14:21:16.259Z,12.03
2019-04-01T14:23:33.107Z,14.73
2019-04-01T14:25:59.848Z,10.63
2019-04-01T14:28:26.423Z,13.83
2019-04-01T14:30:52.815Z,12.13
2019-04-01T14:33:19.274Z,9.50
2019-04-01T14:35:45.754Z,10.70
2019-04-01T14:38:12.297Z,12.13
2019-04-01T14:40:38.969Z,11.10
2019-04-01T14:43:05.540Z,9.93
2019-04-01T14:45:32.034Z,10.00
2019-04-01T14:47:58.480Z,10.33
2019-04-01T14:50:24.955Z,13.13
2019-04-01T14:52:51.509Z,11.90
2019-04-01T14:55:17.980Z,10.07
2019-04-01T14:57:44.424Z,9.77
2019-04-01T15:00:12.550Z,9.70
2019-04-01T15:02:39.624Z,10.57
2019-04-01T15:05:06.301Z,10.07
2019-04-01T15:07:33.208Z,12.87
2019-04-01T15:09:59.678Z,16.60
2019-04-01T15:12:26.354Z,14.67
2019-04-01T15:14:52.816Z,13.80
2019-04-01T15:17:19.296Z,10.83
2019-04-01T15:19:48.410Z,13.30
2019-04-01T15:22:14.365Z,12.90
2019-04-01T15:24:40.824Z,12.57
2019-04-01T15:27:07.280Z,16.77
2019-04-01T15:29:33.743Z,13.73
2019-04-01T15:32:00.312Z,16.93
2019-04-01T15:34:26.865Z,16.13
2019-04-01T15:36:54.261Z,16.80
2019-04-01T15:39:21.628Z,11.43
2019-04-01T15:41:48.216Z,17.73
2019-04-01T15:44:14.659Z,12.80
2019-04-01T15:46:41.041Z,16.40
2019-04-01T15:49:11.118Z,14.67
2019-04-01T15:51:36.103Z,15.67
2019-04-01T15:54:04.433Z,13.63
2019-04-01T15:56:30.958Z,14.23
2019-04-01T15:58:57.439Z,17.17
2019-04-01T16:01:24.186Z,15.60
2019-04-01T16:03:50.730Z,13.43
2019-04-01T16:06:17.223Z,15.83
2019-04-01T16:08:43.783Z,18.97
2019-04-01T16:11:10.336Z,15.23
2019-04-01T16:13:36.918Z,17.77
2019-04-01T16:16:03.456Z,18.43
2019-04-01T16:18:30.992Z,16.17
2019-04-01T16:20:59.400Z,16.67
2019-04-01T16:23:25.940Z,19.70
2019-04-01T16:25:52.803Z,17.90
2019-04-01T16:28:19.384Z,20.43
2019-04-01T16:30:46.027Z,16.60
2019-04-01T16:33:12.408Z,14.93
2019-04-01T16:35:38.967Z,17.83
2019-04-01T16:38:05.893Z,15.10
2019-04-01T16:40:32.469Z,15.40
2019-04-01T16:42:59.043Z,14.77
2019-04-01T16:45:25.712Z,12.50
2019-04-01T16:47:52.061Z,16.87
2019-04-01T16:50:18.725Z,11.20
2019-04-01T16:52:45.619Z,10.30
2019-04-01T16:55:13.688Z,15.03
2019-04-01T16:57:40.257Z,13.60
2019-04-01T17:00:08.806Z,14.83
2019-04-01T17:02:35.457Z,16.07
2019-04-01T17:05:02.428Z,12.33
2019-04-01T17:07:28.978Z,13.40
2019-04-01T17:09:58.083Z,17.60
2019-04-01T17:12:23.996Z,16.47
2019-04-01T17:14:50.479Z,17.33
2019-04-01T17:17:17.032Z,15.50
2019-04-01T17:19:43.571Z,23.10
2019-04-01T17:22:11.616Z,17.57
2019-04-01T17:24:38.467Z,18.53
2019-04-01T17:27:12.143Z,14.80
2019-04-01T17:29:41.103Z,19.13
2019-04-01T17:32:08.071Z,12.67
2019-04-01T17:34:34.628Z,16.33
2019-04-01T17:37:01.353Z,17.73
2019-04-01T17:39:27.780Z,16.60
2019-04-01T17:41:54.285Z,16.50
2019-04-01T17:44:20.827Z,16.47
2019-04-01T17:46:47.240Z,28.93
2019-04-01T17:49:13.794Z,20.87
2019-04-01T17:51:40.275Z,30.40
2019-04-01T17:54:06.720Z,15.13
2019-04-01T17:56:33.264Z,20.00
2019-04-01T17:59:01.517Z,28.97
2019-04-01T18:01:28.078Z,24.77
2019-04-01T18:03:54.660Z,19.97
2019-04-01T18:06:21.112Z,17.97
2019-04-01T18:08:47.621Z,23.77
2019-04-01T18:11:15.993Z,16.63
2019-04-01T18:13:42.675Z,27.23
2019-04-01T18:16:09.243Z,17.33
2019-04-01T18:18:35.819Z,19.60
2019-04-01T18:21:03.442Z,17.90
2019-04-01T18:23:30.258Z,27.70
2019-04-01T18:25:56.830Z,19.80
2019-04-01T18:28:23.313Z,20.93
2019-04-01T18:30:49.863Z,20.40
2019-04-01T18:33:19.570Z,17.63
2019-04-01T18:35:45.012Z,16.87
2019-04-01T18:38:11.553Z,21.67
2019-04-01T18:40:38.064Z,19.83
2019-04-01T18:43:04.626Z,17.13
2019-04-01T18:45:31.191Z,19.90
2019-04-01T18:47:57.744Z,20.70
2019-04-01T18:50:24.734Z,16.60
2019-04-01T18:52:51.428Z,18.23
2019-04-01T18:55:17.912Z,16.07
2019-04-01T18:57:44.359Z,21.17
2019-04-01T19:00:11.239Z,17.77
2019-04-01T19:02:38.028Z,17.83
2019-04-01T19:05:04.802Z,17.80
2019-04-01T19:07:31.175Z,19.47
2019-04-01T19:10:06.158Z,19.00
2019-04-01T19:12:26.104Z,16.50
2019-04-01T19:14:52.555Z,16.47
2019-04-01T19:17:19.232Z,17.20
2019-04-01T19:19:48.507Z,18.77
2019-04-01T19:22:14.314Z,19.07
2019-04-01T19:24:40.859Z,22.63
2019-04-01T19:27:07.227Z,18.00
2019-04-01T19:29:33.585Z,22.93
2019-04-01T19:31:59.955Z,18.87
2019-04-01T19:34:26.415Z,22.77
2019-04-01T19:36:53.021Z,22.63
2019-04-01T19:39:19.715Z,25.53
2019-04-01T19:41:46.274Z,21.23
2019-04-01T19:44:13.312Z,16.53
2019-04-01T19:46:40.806Z,21.27
2019-04-01T19:49:07.378Z,26.63
2019-04-01T19:51:36.035Z,19.67
2019-04-01T19:54:02.408Z,18.10
2019-04-01T19:56:29.060Z,15.20
2019-04-01T19:58:55.543Z,18.03
2019-04-01T20:01:24.737Z,16.37
2019-04-01T20:03:50.570Z,20.50
2019-04-01T20:06:18.370Z,17.17
2019-04-01T20:08:45.925Z,13.93
2019-04-01T20:11:12.956Z,20.20
2019-04-01T20:13:42.665Z,14.90
2019-04-01T20:16:10.154Z,15.67
2019-04-01T20:18:36.244Z,15.30
2019-04-01T20:21:03.254Z,12.00
2019-04-01T20:23:29.808Z,16.47
2019-04-01T20:25:56.287Z,13.70
2019-04-01T20:28:22.742Z,13.87
2019-04-01T20:30:49.324Z,18.53
2019-04-01T20:33:17.849Z,11.80
2019-04-01T20:35:44.059Z,14.03
2019-04-01T20:38:10.432Z,15.83
2019-04-01T20:40:37.004Z,11.33
2019-04-01T20:43:03.756Z,11.60
2019-04-01T20:45:30.222Z,18.17
2019-04-01T20:47:56.703Z,9.77
2019-04-01T20:50:23.834Z,17.20
2019-04-01T20:52:50.692Z,13.13
2019-04-01T20:55:17.348Z,16.60
2019-04-01T20:57:43.728Z,10.73
2019-04-01T21:00:10.941Z,14.80
2019-04-01T21:02:37.325Z,16.03
2019-04-01T21:05:06.180Z,12.17
2019-04-01T21:07:32.663Z,11.13
2019-04-01T21:09:59.215Z,13.40
2019-04-01T21:12:25.679Z,13.13
2019-04-01T21:14:52.141Z,14.20
2019-04-01T21:17:18.712Z,16.40
2019-04-01T21:19:45.304Z,13.10
2019-04-01T21:22:11.735Z,13.73
2019-04-01T21:24:38.186Z,14.80
2019-04-01T21:27:04.768Z,13.60
2019-04-01T21:29:31.316Z,16.73
2019-04-01T21:31:57.887Z,14.83
2019-04-01T21:34:24.871Z,13.40
2019-04-01T21:36:51.431Z,12.37
2019-04-01T21:39:17.905Z,12.83
2019-04-01T21:41:44.347Z,12.47
2019-04-01T21:44:11.026Z,17.93
2019-04-01T21:46:37.683Z,17.33
2019-04-01T21:49:04.168Z,14.90
2019-04-01T21:51:31.032Z,12.30
2019-04-01T21:53:57.635Z,13.08
2019-04-01T21:56:24.174Z,14.90
2019-04-01T21:58:50.660Z,13.55
2019-04-01T22:01:17.337Z,12.82
2019-04-01T22:03:43.811Z,15.27
2019-04-01T22:06:11.857Z,20.10
2019-04-01T22:08:38.824Z,17.02
2019-04-01T22:11:05.667Z,16.03
2019-04-01T22:13:32.220Z,21.80
2019-04-01T22:15:59.151Z,16.10
2019-04-01T22:18:25.619Z,18.10
2019-04-01T22:20:52.355Z,25.20
2019-04-01T22:23:18.932Z,17.90
2019-04-01T22:25:45.604Z,19.70
2019-04-01T22:28:12.169Z,17.25
2019-04-01T22:30:38.648Z,23.10
2019-04-01T22:33:05.219Z,18.13
2019-04-01T22:35:38.545Z,18.02
2019-04-01T22:38:00.298Z,23.55
2019-04-01T22:40:27.194Z,14.25
2019-04-01T22:42:53.736Z,23.70
2019-04-01T22:45:20.655Z,21.75
2019-04-01T22:47:47.685Z,19.67
2019-04-01T22:50:14.557Z,18.87
2019-04-01T22:52:42.297Z,23.67
2019-04-01T22:55:09.459Z,12.53
2019-04-01T22:57:35.948Z,15.30
2019-04-01T23:00:04.013Z,16.62
2019-04-01T23:02:30.400Z,20.68
2019-04-01T23:04:56.884Z,18.07
2019-04-01T23:07:23.343Z,20.57
2019-04-01T23:09:50.009Z,16.50
2019-04-01T23:12:16.796Z,16.80
2019-04-01T23:14:44.161Z,17.80
2019-04-01T23:17:10.944Z,15.98
2019-04-01T23:19:37.416Z,17.05
2019-04-01T23:22:04.101Z,15.95
2019-04-01T23:24:30.661Z,18.55
2019-04-01T23:26:57.228Z,16.15
2019-04-01T23:29:24.133Z,14.73
2019-04-01T23:31:51.184Z,16.50
2019-04-01T23:34:17.768Z,14.87
2019-04-01T23:36:44.560Z,16.48
2019-04-01T23:39:11.140Z,13.65
2019-04-01T23:41:37.588Z,13.40
2019-04-01T23:44:04.072Z,18.60
2019-04-01T23:46:31.010Z,13.72
2019-04-01T23:48:57.486Z,16.97
2019-04-01T23:51:24.293Z,14.90
2019-04-01T23:53:50.772Z,16.80
2019-04-01T23:56:17.140Z,15.95
2019-04-01T23:58:43.627Z,15.43
